Nevils, Georgia
Current Conditions -  °F | °C
As of 9:55 AM on Monday 24 Nov 2014 (Local Time) from KCWV Reporting Station
Broken Clouds Broken Clouds  
Wind Chill: 75°   Ceiling: 2000
Heat Index: 75°   Visibility: 10mi
Dew Point: 75°   Wind: 7mph
Humidity: 100%   Direction: 200°SSW
Pressure: 29.86"   Gusts: NA
Location:  32.1532°N, 81.5657°W
Report Text: KCWV 241455Z AUTO 20006KT 170V250 10SM SCT014 BKN020 BKN050 24/24 A2986 RMK AO2 LTG DSNT E
Loading
Personal Weather Stations






























Interactive Weather Map New forecast layout! Learn more

10-Day Weather Forecast

Advertisements
Track Severe Weather on mobile